Tuesday, September 02, 2014
09:17 UTC
  |  Log In   |  Register Free
Airport Search:

Alpena County Regional Airport
(KAPN)

FAA data valid effective July 24, 2014 until September 18, 2014 (unless otherwise noted).

 
 
 
 
 
 
 
 
 
 
 
 
 
 

Current Aviation Weather for Alpena County Regional Airport (KAPN)

The most recent METAR observation for KAPN was updated at: 0454 UTC
METAR Summary (Translated METAR)
KAPN
020454Z AUTO 24004KT 10SM CLR 19/18 A2974 RMK AO2 SLP069 T01940183 402830150 $
KPZQ
(22.4 nm NW from KAPN)
020857Z AUTO 24004KT 10SM CLR 17/17 A2979 RMK AO2
TAF Summary (Translated TAF)
KAPN
020520Z 0206/0306 25005KT P6SM FEW060 FM021300 26007KT P6SM SKC FM021700 29011KT P6SM SCT050 SCT090 FM030100 00000KT P6SM SCT090
  Airport Weather Conditions for KAPN

 Current Weather at APN
67° F
Fair
Southwest winds at 4.6 mph
APN NOAA Radar

Pressure: 29.74 in
Humidity: 93%
Wind: Southwest at 4.6 MPH (4 KT)
Dew Point: 64.9°F
Visibility: 10.00 mi


Airport Weather Forecast for KAPN

Translated METAR and TAF for KAPN
Translated METAR for KAPN (0911 UTC 02 September 2014)
found at http://aviationweather.gov/adds/metars/
 
METAR text: KAPN 020454Z AUTO 24004KT 10SM CLR 19/18 A2974 RMK AO2 SLP069 T01940183 402830150 $
Conditions at: KAPN (ALPENA , MI, US) observed 0454 UTC 02 September 2014
Temperature: 19.4°C (67°F)
Dewpoint: 18.3°C (65°F) [RH = 93%]
Pressure (altimeter): 29.74 inches Hg (1007.2 mb)
[Sea-level pressure: 1006.9 mb]
Winds: from the WSW (240 degrees) at 5 MPH (4 knots; 2.1 m/s)
Visibility: 10 or more miles (16+ km)
Ceiling: at least 12,000 feet AGL
Clouds: sky clear below 12,000 feet AGL
Weather:
SOME DATA ABOVE MAY BE INACCURATE!!!
"$" is an indication the sensor requires maintenance
Translated TAF for KAPN
Forecast for: KAPN (ALPENA , MI, US)
TAF Text: KAPN 020520Z 0206/0306 25005KT P6SM FEW060
Forecast period: 0600 to 1300 UTC 02 September 2014
Forecast type: FROM: standard forecast or significant change
Winds: from the WSW (250 degrees) at 6 MPH (5 knots; 2.6 m/s)
Visibility: 6 or more miles (10+ km)
Clouds: few clouds at 6000 feet AGL
Weather: no significant weather forecast for this period
TAF Text: FM021300 26007KT P6SM SKC
Forecast period: 1300 to 1700 UTC 02 September 2014
Forecast type: FROM: standard forecast or significant change
Winds: from the W (260 degrees) at 8 MPH (7 knots; 3.6 m/s)
Visibility: 6 or more miles (10+ km)
Clouds: clear skies
Weather: no significant weather forecast for this period
TAF Text: FM021700 29011KT P6SM SCT050 SCT090
Forecast period: 1700 UTC 02 September 2014 to 0100 UTC 03 September 2014
Forecast type: FROM: standard forecast or significant change
Winds: from the WNW (290 degrees) at 13 MPH (11 knots; 5.7 m/s)
Visibility: 6 or more miles (10+ km)
Clouds: scattered clouds at 5000 feet AGL
scattered clouds at 9000 feet AGL
Weather: no significant weather forecast for this period
TAF Text: FM030100 00000KT P6SM SCT090
Forecast period: 0100 to 0600 UTC 03 September 2014
Forecast type: FROM: standard forecast or significant change
Winds: calm
Visibility: 6 or more miles (10+ km)
Clouds: scattered clouds at 9000 feet AGL
Weather: no significant weather forecast for this period

Find All Airport Services Find A Hotel Find A Rental Car Find A Golf Course Find A Restaurant $100 Hamburger



FBO's on the Field
FBO Company Facility Photos Services Transportation Aviation Fuel Prices: Prices include tax
Catering Weather Repair Courtesy Rental Type 100LL JetA JetA+ MOGAS 8087
 
Aviation Express Inc.

This FBO has not yet been rated
FS:Shell
Last Updated: Aug-05
Login to update fuel prices
SS:
Contact Aviation Express Inc.More FBO Information
 
Aviation North

This FBO has not yet been rated
FS:Avfuel
Last Updated: Aug-03
Login to update fuel prices
SS:
Contact Aviation NorthMore FBO Information
 
Add another FBO Facility Photos Catering Weather Repair Courtesy Rental Type 100LL JetA JetA+ MOGAS 8087
Services Transportation Aviation Fuel Prices: Prices include tax


GlobalAir.com Airport Resource Center model-print
model-print
model-print
model-print